sensor_id;sensor_type;location;lat;lon;timestamp;temperature;humidity
21811;DHT22;11067;48.788;9.208;2023-04-01T00:01:30;9.30;99.90
21811;DHT22;11067;48.788;9.208;2023-04-01T00:03:56;9.20;99.90
21811;DHT22;11067;48.788;9.208;2023-04-01T00:06:22;9.20;99.90
21811;DHT22;11067;48.788;9.208;2023-04-01T00:08:48;9.10;99.90
21811;DHT22;11067;48.788;9.208;2023-04-01T00:11:14;9.10;99.90
21811;DHT22;11067;48.788;9.208;2023-04-01T00:13:40;9.20;99.90
21811;DHT22;11067;48.788;9.208;2023-04-01T00:16:07;9.30;99.90
21811;DHT22;11067;48.788;9.208;2023-04-01T00:18:32;9.30;99.90
21811;DHT22;11067;48.788;9.208;2023-04-01T00:20:58;9.30;99.90
21811;DHT22;11067;48.788;9.208;2023-04-01T00:23:24;9.40;99.90
21811;DHT22;11067;48.788;9.208;2023-04-01T00:25:49;9.50;99.90
21811;DHT22;11067;48.788;9.208;2023-04-01T00:28:17;9.50;99.90
21811;DHT22;11067;48.788;9.208;2023-04-01T00:30:43;9.50;99.90
21811;DHT22;11067;48.788;9.208;2023-04-01T00:33:09;9.50;99.90
21811;DHT22;11067;48.788;9.208;2023-04-01T00:35:34;9.50;99.90
21811;DHT22;11067;48.788;9.208;2023-04-01T00:38:00;9.40;99.90
21811;DHT22;11067;48.788;9.208;2023-04-01T00:40:30;9.50;99.90
21811;DHT22;11067;48.788;9.208;2023-04-01T00:42:56;9.50;99.90
21811;DHT22;11067;48.788;9.208;2023-04-01T00:45:34;9.40;99.90
21811;DHT22;11067;48.788;9.208;2023-04-01T00:48:13;9.40;99.90
21811;DHT22;11067;48.788;9.208;2023-04-01T00:50:42;9.50;99.90
21811;DHT22;11067;48.788;9.208;2023-04-01T00:53:09;9.50;99.90
21811;DHT22;11067;48.788;9.208;2023-04-01T00:55:38;9.50;99.90
21811;DHT22;11067;48.788;9.208;2023-04-01T00:58:07;9.50;99.90
21811;DHT22;11067;48.788;9.208;2023-04-01T01:00:35;9.50;99.90
21811;DHT22;11067;48.788;9.208;2023-04-01T01:03:01;9.40;99.90
21811;DHT22;11067;48.788;9.208;2023-04-01T01:08:18;9.40;99.90
21811;DHT22;11067;48.788;9.208;2023-04-01T01:10:49;9.50;99.90
21811;DHT22;11067;48.788;9.208;2023-04-01T01:13:42;9.50;99.90
21811;DHT22;11067;48.788;9.208;2023-04-01T01:16:09;9.40;99.90
21811;DHT22;11067;48.788;9.208;2023-04-01T01:18:43;9.30;99.90
21811;DHT22;11067;48.788;9.208;2023-04-01T01:21:42;9.30;99.90
21811;DHT22;11067;48.788;9.208;2023-04-01T01:26:53;9.30;99.90
21811;DHT22;11067;48.788;9.208;2023-04-01T01:32:38;9.40;99.90
21811;DHT22;11067;48.788;9.208;2023-04-01T01:35:22;9.50;99.90
21811;DHT22;11067;48.788;9.208;2023-04-01T01:37:56;9.40;99.90
21811;DHT22;11067;48.788;9.208;2023-04-01T01:40:24;9.50;99.90
21811;DHT22;11067;48.788;9.208;2023-04-01T01:42:55;9.40;99.90
21811;DHT22;11067;48.788;9.208;2023-04-01T01:45:23;9.50;99.90
21811;DHT22;11067;48.788;9.208;2023-04-01T01:47:51;9.40;99.90
21811;DHT22;11067;48.788;9.208;2023-04-01T01:50:18;9.50;99.90
21811;DHT22;11067;48.788;9.208;2023-04-01T01:52:44;9.50;99.90
21811;DHT22;11067;48.788;9.208;2023-04-01T01:55:28;9.40;99.90
21811;DHT22;11067;48.788;9.208;2023-04-01T01:57:57;9.30;99.90
21811;DHT22;11067;48.788;9.208;2023-04-01T02:00:23;9.30;99.90
21811;DHT22;11067;48.788;9.208;2023-04-01T02:02:50;9.20;99.90
21811;DHT22;11067;48.788;9.208;2023-04-01T02:05:21;9.20;99.90
21811;DHT22;11067;48.788;9.208;2023-04-01T02:07:54;9.10;99.90
21811;DHT22;11067;48.788;9.208;2023-04-01T02:10:25;9.20;99.90
21811;DHT22;11067;48.788;9.208;2023-04-01T02:12:52;9.10;99.90
21811;DHT22;11067;48.788;9.208;2023-04-01T02:15:20;9.10;99.90
21811;DHT22;11067;48.788;9.208;2023-04-01T02:17:47;9.10;99.90
21811;DHT22;11067;48.788;9.208;2023-04-01T02:20:15;9.20;99.90
21811;DHT22;11067;48.788;9.208;2023-04-01T02:22:47;9.20;99.90
21811;DHT22;11067;48.788;9.208;2023-04-01T02:25:16;9.20;99.90
21811;DHT22;11067;48.788;9.208;2023-04-01T02:27:44;9.20;99.90
21811;DHT22;11067;48.788;9.208;2023-04-01T02:30:11;9.10;99.90
21811;DHT22;11067;48.788;9.208;2023-04-01T02:32:38;9.10;99.90
21811;DHT22;11067;48.788;9.208;2023-04-01T02:35:10;9.10;99.90
21811;DHT22;11067;48.788;9.208;2023-04-01T02:37:37;9.10;99.90
21811;DHT22;11067;48.788;9.208;2023-04-01T02:40:07;9.10;99.90
21811;DHT22;11067;48.788;9.208;2023-04-01T02:42:34;9.10;99.90
21811;DHT22;11067;48.788;9.208;2023-04-01T02:44:59;9.00;99.90
21811;DHT22;11067;48.788;9.208;2023-04-01T02:47:25;9.00;99.90
21811;DHT22;11067;48.788;9.208;2023-04-01T02:49:50;8.90;99.90
21811;DHT22;11067;48.788;9.208;2023-04-01T02:52:16;8.90;99.90
21811;DHT22;11067;48.788;9.208;2023-04-01T02:54:41;8.80;99.90
21811;DHT22;11067;48.788;9.208;2023-04-01T02:57:07;8.80;99.90
21811;DHT22;11067;48.788;9.208;2023-04-01T02:59:33;8.80;99.90
21811;DHT22;11067;48.788;9.208;2023-04-01T03:01:58;8.80;99.90
21811;DHT22;11067;48.788;9.208;2023-04-01T03:04:24;8.80;99.90
21811;DHT22;11067;48.788;9.208;2023-04-01T03:06:49;8.80;99.90
21811;DHT22;11067;48.788;9.208;2023-04-01T03:09:16;8.80;99.90
21811;DHT22;11067;48.788;9.208;2023-04-01T03:11:42;8.80;99.90
21811;DHT22;11067;48.788;9.208;2023-04-01T03:14:07;8.90;99.90
21811;DHT22;11067;48.788;9.208;2023-04-01T03:16:33;8.80;99.90
21811;DHT22;11067;48.788;9.208;2023-04-01T03:18:58;8.80;99.90
21811;DHT22;11067;48.788;9.208;2023-04-01T03:21:27;8.80;99.90
21811;DHT22;11067;48.788;9.208;2023-04-01T03:23:52;8.70;99.90
21811;DHT22;11067;48.788;9.208;2023-04-01T03:26:18;8.80;99.90
21811;DHT22;11067;48.788;9.208;2023-04-01T03:28:44;8.70;99.90
21811;DHT22;11067;48.788;9.208;2023-04-01T03:31:10;8.70;99.90
21811;DHT22;11067;48.788;9.208;2023-04-01T03:33:36;8.60;99.90
21811;DHT22;11067;48.788;9.208;2023-04-01T03:36:02;8.60;99.90
21811;DHT22;11067;48.788;9.208;2023-04-01T03:38:28;8.60;99.90
21811;DHT22;11067;48.788;9.208;2023-04-01T03:40:54;8.70;99.90
21811;DHT22;11067;48.788;9.208;2023-04-01T03:43:19;8.80;99.90
21811;DHT22;11067;48.788;9.208;2023-04-01T03:45:47;8.70;99.90
21811;DHT22;11067;48.788;9.208;2023-04-01T03:48:16;8.80;99.90
21811;DHT22;11067;48.788;9.208;2023-04-01T03:50:42;8.70;99.90
21811;DHT22;11067;48.788;9.208;2023-04-01T03:53:07;8.80;99.90
21811;DHT22;11067;48.788;9.208;2023-04-01T03:55:33;8.80;99.90
21811;DHT22;11067;48.788;9.208;2023-04-01T03:58:00;8.80;99.90
21811;DHT22;11067;48.788;9.208;2023-04-01T04:00:30;8.80;99.90
21811;DHT22;11067;48.788;9.208;2023-04-01T04:02:56;8.80;99.90
21811;DHT22;11067;48.788;9.208;2023-04-01T04:05:23;8.70;99.90
21811;DHT22;11067;48.788;9.208;2023-04-01T04:07:49;8.70;99.90
21811;DHT22;11067;48.788;9.208;2023-04-01T04:10:15;8.70;99.90
21811;DHT22;11067;48.788;9.208;2023-04-01T04:12:41;8.70;99.90
21811;DHT22;11067;48.788;9.208;2023-04-01T04:15:07;8.70;99.90
21811;DHT22;11067;48.788;9.208;2023-04-01T04:17:33;8.70;99.90
21811;DHT22;11067;48.788;9.208;2023-04-01T04:19:59;8.70;99.90
21811;DHT22;11067;48.788;9.208;2023-04-01T04:22:24;8.70;99.90
21811;DHT22;11067;48.788;9.208;2023-04-01T04:24:50;8.70;99.90
21811;DHT22;11067;48.788;9.208;2023-04-01T04:27:15;8.70;99.90
21811;DHT22;11067;48.788;9.208;2023-04-01T04:29:41;8.70;99.90
21811;DHT22;11067;48.788;9.208;2023-04-01T04:32:06;8.60;99.90
21811;DHT22;11067;48.788;9.208;2023-04-01T04:34:32;8.60;99.90
21811;DHT22;11067;48.788;9.208;2023-04-01T04:36:58;8.60;99.90
21811;DHT22;11067;48.788;9.208;2023-04-01T04:39:23;8.60;99.90
21811;DHT22;11067;48.788;9.208;2023-04-01T04:41:49;8.50;99.90
21811;DHT22;11067;48.788;9.208;2023-04-01T04:44:15;8.50;99.90
21811;DHT22;11067;48.788;9.208;2023-04-01T04:46:40;8.50;99.90
21811;DHT22;11067;48.788;9.208;2023-04-01T04:49:07;8.40;99.90
21811;DHT22;11067;48.788;9.208;2023-04-01T04:51:32;8.30;99.90
21811;DHT22;11067;48.788;9.208;2023-04-01T04:54:05;8.30;99.90
21811;DHT22;11067;48.788;9.208;2023-04-01T04:56:31;8.20;99.90
21811;DHT22;11067;48.788;9.208;2023-04-01T04:58:58;8.30;99.90
21811;DHT22;11067;48.788;9.208;2023-04-01T05:01:24;8.30;99.90
21811;DHT22;11067;48.788;9.208;2023-04-01T05:03:50;8.30;99.90
21811;DHT22;11067;48.788;9.208;2023-04-01T05:06:16;8.40;99.90
21811;DHT22;11067;48.788;9.208;2023-04-01T05:08:43;8.40;99.90
21811;DHT22;11067;48.788;9.208;2023-04-01T05:11:14;8.40;99.90
21811;DHT22;11067;48.788;9.208;2023-04-01T05:13:40;8.40;99.90
21811;DHT22;11067;48.788;9.208;2023-04-01T05:16:09;8.40;99.90
21811;DHT22;11067;48.788;9.208;2023-04-01T05:18:34;8.50;99.90
21811;DHT22;11067;48.788;9.208;2023-04-01T05:21:00;8.50;99.90
21811;DHT22;11067;48.788;9.208;2023-04-01T05:23:25;8.50;99.90
21811;DHT22;11067;48.788;9.208;2023-04-01T05:25:51;8.50;99.90
21811;DHT22;11067;48.788;9.208;2023-04-01T05:28:18;8.50;99.90
21811;DHT22;11067;48.788;9.208;2023-04-01T05:30:45;8.60;99.90
21811;DHT22;11067;48.788;9.208;2023-04-01T05:33:11;8.50;99.90
21811;DHT22;11067;48.788;9.208;2023-04-01T05:35:38;8.60;99.90
21811;DHT22;11067;48.788;9.208;2023-04-01T05:38:04;8.70;99.90
21811;DHT22;11067;48.788;9.208;2023-04-01T05:40:30;8.80;99.90
21811;DHT22;11067;48.788;9.208;2023-04-01T05:42:56;8.90;99.90
21811;DHT22;11067;48.788;9.208;2023-04-01T05:45:21;9.00;99.90
21811;DHT22;11067;48.788;9.208;2023-04-01T05:47:47;9.10;99.90
21811;DHT22;11067;48.788;9.208;2023-04-01T05:50:12;9.10;99.90
21811;DHT22;11067;48.788;9.208;2023-04-01T05:52:38;9.10;99.90
21811;DHT22;11067;48.788;9.208;2023-04-01T05:55:04;9.10;99.90
21811;DHT22;11067;48.788;9.208;2023-04-01T05:57:30;9.20;99.90
21811;DHT22;11067;48.788;9.208;2023-04-01T05:59:56;9.20;99.90
21811;DHT22;11067;48.788;9.208;2023-04-01T06:02:22;9.50;99.90
21811;DHT22;11067;48.788;9.208;2023-04-01T06:04:48;9.40;99.90
21811;DHT22;11067;48.788;9.208;2023-04-01T06:07:15;9.40;99.90
21811;DHT22;11067;48.788;9.208;2023-04-01T06:09:42;9.50;99.90
21811;DHT22;11067;48.788;9.208;2023-04-01T06:20:46;9.70;99.90
21811;DHT22;11067;48.788;9.208;2023-04-01T06:37:51;10.10;99.90
21811;DHT22;11067;48.788;9.208;2023-04-01T06:43:19;9.90;99.90
21811;DHT22;11067;48.788;9.208;2023-04-01T06:45:54;10.00;99.90
21811;DHT22;11067;48.788;9.208;2023-04-01T06:48:27;9.90;99.90
21811;DHT22;11067;48.788;9.208;2023-04-01T06:56:04;10.10;99.90
21811;DHT22;11067;48.788;9.208;2023-04-01T06:58:44;10.20;99.90
21811;DHT22;11067;48.788;9.208;2023-04-01T07:01:18;10.20;99.90
21811;DHT22;11067;48.788;9.208;2023-04-01T07:03:52;10.10;99.90
21811;DHT22;11067;48.788;9.208;2023-04-01T07:08:53;10.10;99.90
21811;DHT22;11067;48.788;9.208;2023-04-01T07:11:25;10.20;99.90
21811;DHT22;11067;48.788;9.208;2023-04-01T07:14:01;10.30;99.90
21811;DHT22;11067;48.788;9.208;2023-04-01T07:16:36;10.40;99.90
21811;DHT22;11067;48.788;9.208;2023-04-01T07:19:31;10.40;99.90
21811;DHT22;11067;48.788;9.208;2023-04-01T07:22:03;10.40;99.90
21811;DHT22;11067;48.788;9.208;2023-04-01T07:24:40;10.50;99.90
21811;DHT22;11067;48.788;9.208;2023-04-01T07:27:12;10.30;99.90
21811;DHT22;11067;48.788;9.208;2023-04-01T07:29:38;10.40;99.90
21811;DHT22;11067;48.788;9.208;2023-04-01T07:40:32;10.30;99.90
21811;DHT22;11067;48.788;9.208;2023-04-01T07:48:47;10.20;99.90
21811;DHT22;11067;48.788;9.208;2023-04-01T07:51:29;10.30;99.90
21811;DHT22;11067;48.788;9.208;2023-04-01T07:54:25;10.30;99.90
21811;DHT22;11067;48.788;9.208;2023-04-01T07:57:05;10.40;99.90
21811;DHT22;11067;48.788;9.208;2023-04-01T08:05:26;10.70;99.90
21811;DHT22;11067;48.788;9.208;2023-04-01T08:10:48;10.60;99.90
21811;DHT22;11067;48.788;9.208;2023-04-01T08:13:42;10.60;99.90
21811;DHT22;11067;48.788;9.208;2023-04-01T08:22:03;10.90;99.90
21811;DHT22;11067;48.788;9.208;2023-04-01T08:24:43;10.90;99.90
21811;DHT22;11067;48.788;9.208;2023-04-01T08:32:42;10.90;99.90
21811;DHT22;11067;48.788;9.208;2023-04-01T08:35:14;10.90;99.90
21811;DHT22;11067;48.788;9.208;2023-04-01T08:37:43;10.90;99.90
21811;DHT22;11067;48.788;9.208;2023-04-01T08:40:39;11.00;99.90
21811;DHT22;11067;48.788;9.208;2023-04-01T08:49:06;10.70;99.90
21811;DHT22;11067;48.788;9.208;2023-04-01T08:54:22;10.20;99.90
21811;DHT22;11067;48.788;9.208;2023-04-01T09:02:47;10.00;99.90
21811;DHT22;11067;48.788;9.208;2023-04-01T09:05:36;10.00;99.90
21811;DHT22;11067;48.788;9.208;2023-04-01T09:08:10;9.90;99.90
21811;DHT22;11067;48.788;9.208;2023-04-01T09:11:12;9.90;99.90
21811;DHT22;11067;48.788;9.208;2023-04-01T09:22:23;10.10;99.90
21811;DHT22;11067;48.788;9.208;2023-04-01T09:25:13;10.10;99.90
21811;DHT22;11067;48.788;9.208;2023-04-01T09:28:10;10.20;99.90
21811;DHT22;11067;48.788;9.208;2023-04-01T09:31:16;10.30;99.90
21811;DHT22;11067;48.788;9.208;2023-04-01T09:36:43;10.60;99.90
21811;DHT22;11067;48.788;9.208;2023-04-01T09:39:25;10.70;99.90
21811;DHT22;11067;48.788;9.208;2023-04-01T09:42:02;10.90;99.90
21811;DHT22;11067;48.788;9.208;2023-04-01T09:44:35;11.00;99.90
21811;DHT22;11067;48.788;9.208;2023-04-01T09:53:13;10.90;99.90
21811;DHT22;11067;48.788;9.208;2023-04-01T10:01:52;10.70;99.90
21811;DHT22;11067;48.788;9.208;2023-04-01T10:16:25;10.90;99.90
21811;DHT22;11067;48.788;9.208;2023-04-01T10:19:12;11.00;99.90
21811;DHT22;11067;48.788;9.208;2023-04-01T10:22:16;11.10;99.90
21811;DHT22;11067;48.788;9.208;2023-04-01T10:25:18;11.20;99.90
21811;DHT22;11067;48.788;9.208;2023-04-01T10:34:20;11.40;99.90
21811;DHT22;11067;48.788;9.208;2023-04-01T10:36:54;11.60;99.90
21811;DHT22;11067;48.788;9.208;2023-04-01T10:39:34;11.60;99.90
21811;DHT22;11067;48.788;9.208;2023-04-01T10:50:47;11.20;99.90
21811;DHT22;11067;48.788;9.208;2023-04-01T10:56:19;11.60;99.90
21811;DHT22;11067;48.788;9.208;2023-04-01T11:11:13;11.50;99.90
21811;DHT22;11067;48.788;9.208;2023-04-01T11:22:24;11.50;99.90
21811;DHT22;11067;48.788;9.208;2023-04-01T11:25:04;11.70;99.90
21811;DHT22;11067;48.788;9.208;2023-04-01T11:27:55;11.80;99.90
21811;DHT22;11067;48.788;9.208;2023-04-01T11:33:28;12.00;99.90
21811;DHT22;11067;48.788;9.208;2023-04-01T11:36:10;12.30;99.90
21811;DHT22;11067;48.788;9.208;2023-04-01T11:41:34;12.50;99.90
21811;DHT22;11067;48.788;9.208;2023-04-01T11:47:03;12.70;99.90
21811;DHT22;11067;48.788;9.208;2023-04-01T11:49:59;12.90;99.90
21811;DHT22;11067;48.788;9.208;2023-04-01T11:52:39;12.90;99.90
21811;DHT22;11067;48.788;9.208;2023-04-01T12:01:06;12.50;99.90
21811;DHT22;11067;48.788;9.208;2023-04-01T12:12:12;12.40;99.90
21811;DHT22;11067;48.788;9.208;2023-04-01T12:15:03;11.80;99.90
21811;DHT22;11067;48.788;9.208;2023-04-01T12:17:57;11.70;99.90
21811;DHT22;11067;48.788;9.208;2023-04-01T12:26:16;11.70;99.90
21811;DHT22;11067;48.788;9.208;2023-04-01T12:31:47;11.80;99.90
21811;DHT22;11067;48.788;9.208;2023-04-01T12:37:16;12.10;99.90
21811;DHT22;11067;48.788;9.208;2023-04-01T13:03:03;12.30;99.90
21811;DHT22;11067;48.788;9.208;2023-04-01T13:11:40;12.40;99.90
21811;DHT22;11067;48.788;9.208;2023-04-01T13:14:33;12.40;99.90
21811;DHT22;11067;48.788;9.208;2023-04-01T13:17:14;12.30;99.90
21811;DHT22;11067;48.788;9.208;2023-04-01T13:25:27;12.00;99.90
21811;DHT22;11067;48.788;9.208;2023-04-01T13:28:06;12.10;99.90
21811;DHT22;11067;48.788;9.208;2023-04-01T13:31:14;12.30;99.90
21811;DHT22;11067;48.788;9.208;2023-04-01T13:36:37;12.30;99.90
21811;DHT22;11067;48.788;9.208;2023-04-01T13:39:28;12.30;99.90
21811;DHT22;11067;48.788;9.208;2023-04-01T13:42:25;12.10;99.90
21811;DHT22;11067;48.788;9.208;2023-04-01T13:45:00;12.10;99.90
21811;DHT22;11067;48.788;9.208;2023-04-01T13:50:45;12.10;99.90
21811;DHT22;11067;48.788;9.208;2023-04-01T13:56:12;12.10;99.90
21811;DHT22;11067;48.788;9.208;2023-04-01T13:59:17;12.10;99.90
21811;DHT22;11067;48.788;9.208;2023-04-01T14:02:24;12.20;99.90
21811;DHT22;11067;48.788;9.208;2023-04-01T14:08:28;12.20;99.90
21811;DHT22;11067;48.788;9.208;2023-04-01T14:11:48;12.50;99.90
21811;DHT22;11067;48.788;9.208;2023-04-01T14:22:53;12.00;99.90
21811;DHT22;11067;48.788;9.208;2023-04-01T14:25:51;11.90;99.90
21811;DHT22;11067;48.788;9.208;2023-04-01T14:28:47;11.80;99.90
21811;DHT22;11067;48.788;9.208;2023-04-01T14:31:32;11.80;99.90
21811;DHT22;11067;48.788;9.208;2023-04-01T14:40:26;12.00;99.90
21811;DHT22;11067;48.788;9.208;2023-04-01T14:43:14;11.90;99.90
21811;DHT22;11067;48.788;9.208;2023-04-01T14:45:45;11.70;99.90
21811;DHT22;11067;48.788;9.208;2023-04-01T14:48:31;11.60;99.90
21811;DHT22;11067;48.788;9.208;2023-04-01T14:51:09;11.60;99.90
21811;DHT22;11067;48.788;9.208;2023-04-01T14:53:38;11.60;99.90
21811;DHT22;11067;48.788;9.208;2023-04-01T14:56:07;11.60;99.90
21811;DHT22;11067;48.788;9.208;2023-04-01T15:15:11;11.90;99.90
21811;DHT22;11067;48.788;9.208;2023-04-01T15:18:03;11.80;99.90
21811;DHT22;11067;48.788;9.208;2023-04-01T15:20:53;11.70;99.90
21811;DHT22;11067;48.788;9.208;2023-04-01T15:23:52;11.80;99.90
21811;DHT22;11067;48.788;9.208;2023-04-01T15:29:11;11.60;99.90
21811;DHT22;11067;48.788;9.208;2023-04-01T15:32:00;11.80;99.90
21811;DHT22;11067;48.788;9.208;2023-04-01T15:45:56;11.70;99.90
21811;DHT22;11067;48.788;9.208;2023-04-01T15:48:44;11.70;99.90
21811;DHT22;11067;48.788;9.208;2023-04-01T15:55:17;11.60;99.90
21811;DHT22;11067;48.788;9.208;2023-04-01T16:05:55;11.60;99.90
21811;DHT22;11067;48.788;9.208;2023-04-01T16:11:27;11.60;99.90
21811;DHT22;11067;48.788;9.208;2023-04-01T16:16:53;11.60;99.90
21811;DHT22;11067;48.788;9.208;2023-04-01T16:22:35;11.50;99.90
21811;DHT22;11067;48.788;9.208;2023-04-01T16:28:31;11.60;99.90
21811;DHT22;11067;48.788;9.208;2023-04-01T16:34:20;11.50;99.90
21811;DHT22;11067;48.788;9.208;2023-04-01T16:36:55;11.40;99.90
21811;DHT22;11067;48.788;9.208;2023-04-01T16:44:46;11.30;99.90
21811;DHT22;11067;48.788;9.208;2023-04-01T16:47:15;11.40;99.90
21811;DHT22;11067;48.788;9.208;2023-04-01T16:49:58;11.50;99.90
21811;DHT22;11067;48.788;9.208;2023-04-01T16:52:48;11.50;99.90
21811;DHT22;11067;48.788;9.208;2023-04-01T16:55:18;11.40;99.90
21811;DHT22;11067;48.788;9.208;2023-04-01T16:57:56;11.40;99.90
21811;DHT22;11067;48.788;9.208;2023-04-01T17:03:21;11.40;99.90
21811;DHT22;11067;48.788;9.208;2023-04-01T17:06:01;11.40;99.90
21811;DHT22;11067;48.788;9.208;2023-04-01T17:11:02;11.40;99.90
21811;DHT22;11067;48.788;9.208;2023-04-01T17:13:39;11.40;99.90
21811;DHT22;11067;48.788;9.208;2023-04-01T17:18:59;11.40;99.90
21811;DHT22;11067;48.788;9.208;2023-04-01T17:25:02;11.40;99.90
21811;DHT22;11067;48.788;9.208;2023-04-01T17:30:26;11.40;99.90
21811;DHT22;11067;48.788;9.208;2023-04-01T17:33:06;11.40;99.90
21811;DHT22;11067;48.788;9.208;2023-04-01T17:41:10;11.30;99.90
21811;DHT22;11067;48.788;9.208;2023-04-01T17:49:31;11.20;99.90
21811;DHT22;11067;48.788;9.208;2023-04-01T17:57:52;11.20;99.90
21811;DHT22;11067;48.788;9.208;2023-04-01T18:08:42;11.20;99.90
21811;DHT22;11067;48.788;9.208;2023-04-01T18:19:27;10.70;99.90
21811;DHT22;11067;48.788;9.208;2023-04-01T18:22:19;10.60;99.90
21811;DHT22;11067;48.788;9.208;2023-04-01T18:25:37;10.50;99.90
21811;DHT22;11067;48.788;9.208;2023-04-01T18:27:45;10.40;99.90
21811;DHT22;11067;48.788;9.208;2023-04-01T18:30:16;10.40;99.90
21811;DHT22;11067;48.788;9.208;2023-04-01T18:32:54;10.50;99.90
21811;DHT22;11067;48.788;9.208;2023-04-01T18:35:45;10.60;99.90
21811;DHT22;11067;48.788;9.208;2023-04-01T18:38:15;10.50;99.90
21811;DHT22;11067;48.788;9.208;2023-04-01T18:41:10;10.40;99.90
21811;DHT22;11067;48.788;9.208;2023-04-01T18:46:27;10.40;99.90
21811;DHT22;11067;48.788;9.208;2023-04-01T18:49:10;10.40;99.90
21811;DHT22;11067;48.788;9.208;2023-04-01T18:52:03;10.40;99.90
21811;DHT22;11067;48.788;9.208;2023-04-01T18:54:43;10.20;99.90
21811;DHT22;11067;48.788;9.208;2023-04-01T18:57:14;10.10;99.90
21811;DHT22;11067;48.788;9.208;2023-04-01T19:05:16;9.90;99.90
21811;DHT22;11067;48.788;9.208;2023-04-01T19:07:47;9.90;99.90
21811;DHT22;11067;48.788;9.208;2023-04-01T19:10:40;9.80;99.90
21811;DHT22;11067;48.788;9.208;2023-04-01T19:13:35;9.70;99.90
21811;DHT22;11067;48.788;9.208;2023-04-01T19:16:21;9.60;99.90
21811;DHT22;11067;48.788;9.208;2023-04-01T19:21:58;9.50;99.90
21811;DHT22;11067;48.788;9.208;2023-04-01T19:27:24;9.40;99.90
21811;DHT22;11067;48.788;9.208;2023-04-01T19:35:59;9.30;99.90
21811;DHT22;11067;48.788;9.208;2023-04-01T19:41:16;9.30;99.90
21811;DHT22;11067;48.788;9.208;2023-04-01T19:44:02;9.30;99.90
21811;DHT22;11067;48.788;9.208;2023-04-01T19:46:33;9.30;99.90
21811;DHT22;11067;48.788;9.208;2023-04-01T19:54:20;9.20;99.90
21811;DHT22;11067;48.788;9.208;2023-04-01T19:56:59;9.20;99.90
21811;DHT22;11067;48.788;9.208;2023-04-01T19:59:40;9.20;99.90
21811;DHT22;11067;48.788;9.208;2023-04-01T20:04:41;9.20;99.90
21811;DHT22;11067;48.788;9.208;2023-04-01T20:07:23;9.10;99.90
21811;DHT22;11067;48.788;9.208;2023-04-01T20:10:40;9.10;99.90
21811;DHT22;11067;48.788;9.208;2023-04-01T20:13:04;9.20;99.90
21811;DHT22;11067;48.788;9.208;2023-04-01T20:15:40;9.30;99.90
21811;DHT22;11067;48.788;9.208;2023-04-01T20:18:15;9.30;99.90
21811;DHT22;11067;48.788;9.208;2023-04-01T20:20:55;9.40;99.90
21811;DHT22;11067;48.788;9.208;2023-04-01T20:23:54;9.40;99.90
21811;DHT22;11067;48.788;9.208;2023-04-01T20:26:29;9.40;99.90
21811;DHT22;11067;48.788;9.208;2023-04-01T20:32:05;9.50;99.90
21811;DHT22;11067;48.788;9.208;2023-04-01T20:34:49;9.50;99.90
21811;DHT22;11067;48.788;9.208;2023-04-01T20:37:39;9.50;99.90
21811;DHT22;11067;48.788;9.208;2023-04-01T20:40:32;9.50;99.90
21811;DHT22;11067;48.788;9.208;2023-04-01T20:43:20;9.50;99.90
21811;DHT22;11067;48.788;9.208;2023-04-01T20:51:16;9.50;99.90
21811;DHT22;11067;48.788;9.208;2023-04-01T20:54:04;9.50;99.90
21811;DHT22;11067;48.788;9.208;2023-04-01T21:02:22;9.60;99.90
21811;DHT22;11067;48.788;9.208;2023-04-01T21:05:09;9.50;99.90
21811;DHT22;11067;48.788;9.208;2023-04-01T21:10:44;9.50;99.90
21811;DHT22;11067;48.788;9.208;2023-04-01T21:13:47;9.50;99.90
21811;DHT22;11067;48.788;9.208;2023-04-01T21:16:26;9.50;99.90
21811;DHT22;11067;48.788;9.208;2023-04-01T21:27:56;9.60;99.90
21811;DHT22;11067;48.788;9.208;2023-04-01T21:30:59;9.60;99.90
21811;DHT22;11067;48.788;9.208;2023-04-01T21:44:41;9.60;99.90
21811;DHT22;11067;48.788;9.208;2023-04-01T21:50:14;9.50;99.90
21811;DHT22;11067;48.788;9.208;2023-04-01T21:55:53;9.40;99.90
21811;DHT22;11067;48.788;9.208;2023-04-01T21:58:49;9.50;99.90
21811;DHT22;11067;48.788;9.208;2023-04-01T22:01:40;9.40;99.90
21811;DHT22;11067;48.788;9.208;2023-04-01T22:07:20;9.40;99.90
21811;DHT22;11067;48.788;9.208;2023-04-01T22:12:34;9.30;99.90
21811;DHT22;11067;48.788;9.208;2023-04-01T22:23:18;9.10;99.90
21811;DHT22;11067;48.788;9.208;2023-04-01T22:31:08;9.20;99.90
21811;DHT22;11067;48.788;9.208;2023-04-01T22:38:58;9.20;99.90
21811;DHT22;11067;48.788;9.208;2023-04-01T22:41:53;9.20;99.90
21811;DHT22;11067;48.788;9.208;2023-04-01T22:44:39;9.20;99.90
21811;DHT22;11067;48.788;9.208;2023-04-01T22:50:03;9.20;99.90
21811;DHT22;11067;48.788;9.208;2023-04-01T22:52:54;9.30;99.90
21811;DHT22;11067;48.788;9.208;2023-04-01T22:55:27;9.40;99.90
21811;DHT22;11067;48.788;9.208;2023-04-01T22:57:58;9.30;99.90
21811;DHT22;11067;48.788;9.208;2023-04-01T23:00:42;9.40;99.90
21811;DHT22;11067;48.788;9.208;2023-04-01T23:05:54;9.40;99.90
21811;DHT22;11067;48.788;9.208;2023-04-01T23:08:56;9.30;99.90
21811;DHT22;11067;48.788;9.208;2023-04-01T23:19:43;9.30;99.90
21811;DHT22;11067;48.788;9.208;2023-04-01T23:25:23;9.30;99.90
21811;DHT22;11067;48.788;9.208;2023-04-01T23:27:59;9.30;99.90
21811;DHT22;11067;48.788;9.208;2023-04-01T23:36:11;9.20;99.90
21811;DHT22;11067;48.788;9.208;2023-04-01T23:38:40;9.20;99.90
21811;DHT22;11067;48.788;9.208;2023-04-01T23:41:29;9.20;99.90
21811;DHT22;11067;48.788;9.208;2023-04-01T23:44:07;9.20;99.90
21811;DHT22;11067;48.788;9.208;2023-04-01T23:46:35;9.10;99.90
21811;DHT22;11067;48.788;9.208;2023-04-01T23:49:03;9.10;99.90
21811;DHT22;11067;48.788;9.208;2023-04-01T23:51:36;9.10;99.90
21811;DHT22;11067;48.788;9.208;2023-04-01T23:54:33;9.10;99.90
21811;DHT22;11067;48.788;9.208;2023-04-01T23:57:04;9.00;99.90
21811;DHT22;11067;48.788;9.208;2023-04-01T23:59:35;9.10;99.90
